createdAt,value
2022-10-22T00:02:08.106Z,6.40
2022-10-22T00:04:35.707Z,6.05
2022-10-22T00:07:02.804Z,6.65
2022-10-22T00:09:29.470Z,6.63
2022-10-22T00:11:56.162Z,6.53
2022-10-22T00:14:22.958Z,6.63
2022-10-22T00:16:49.686Z,6.45
2022-10-22T00:19:16.567Z,6.85
2022-10-22T00:21:43.342Z,6.43
2022-10-22T00:24:10.073Z,6.88
2022-10-22T00:26:36.808Z,7.53
2022-10-22T00:29:04.033Z,6.85
2022-10-22T00:31:30.883Z,7.13
2022-10-22T00:33:57.650Z,6.82
2022-10-22T00:36:24.364Z,7.60
2022-10-22T00:38:51.124Z,6.97
2022-10-22T00:41:17.902Z,7.03
2022-10-22T00:44:00.052Z,7.07
2022-10-22T00:46:26.827Z,7.18
2022-10-22T00:48:55.015Z,7.18
2022-10-22T00:51:24.064Z,8.20
2022-10-22T00:53:56.049Z,7.60
2022-10-22T00:56:25.859Z,7.85
2022-10-22T00:58:59.866Z,8.48
2022-10-22T01:01:29.779Z,8.00
2022-10-22T01:03:56.967Z,7.57
2022-10-22T01:06:30.651Z,7.72
2022-10-22T01:09:26.519Z,7.20
2022-10-22T01:12:34.705Z,7.30
2022-10-22T01:15:04.539Z,7.28
2022-10-22T01:18:06.526Z,7.38
2022-10-22T01:20:51.885Z,7.72
2022-10-22T01:23:33.265Z,7.78
2022-10-22T01:26:36.159Z,8.05
2022-10-22T01:29:10.177Z,7.93
2022-10-22T01:31:44.451Z,8.05
2022-10-22T01:34:14.886Z,7.72
2022-10-22T01:36:42.781Z,8.13
2022-10-22T01:39:10.845Z,7.80
2022-10-22T01:41:40.037Z,8.48
2022-10-22T01:44:06.799Z,7.88
2022-10-22T01:46:33.849Z,8.30
2022-10-22T01:49:33.085Z,8.10
2022-10-22T01:52:14.601Z,8.60
2022-10-22T01:55:11.605Z,8.05
2022-10-22T01:58:19.573Z,7.72
2022-10-22T02:00:57.152Z,7.70
2022-10-22T02:03:32.234Z,8.05
2022-10-22T02:06:04.650Z,8.88
2022-10-22T02:08:37.055Z,8.20
2022-10-22T02:13:37.639Z,7.70
2022-10-22T02:18:37.623Z,7.43
2022-10-22T02:23:39.013Z,8.32
2022-10-22T02:26:21.441Z,7.70
2022-10-22T02:29:11.251Z,8.50
2022-10-22T02:31:40.601Z,8.18
2022-10-22T02:34:14.687Z,8.55
2022-10-22T02:36:46.678Z,8.07
2022-10-22T02:39:17.719Z,8.02
2022-10-22T02:41:44.594Z,8.40
2022-10-22T02:44:11.800Z,9.63
2022-10-22T02:46:40.114Z,8.93
2022-10-22T02:49:07.066Z,8.38
2022-10-22T02:51:34.378Z,9.52
2022-10-22T02:54:01.259Z,8.20
2022-10-22T02:56:27.943Z,8.65
2022-10-22T02:58:54.702Z,8.65
2022-10-22T03:01:21.575Z,8.98
2022-10-22T03:03:48.360Z,8.18
2022-10-22T03:06:15.255Z,8.13
2022-10-22T03:08:42.344Z,8.32
2022-10-22T03:11:09.312Z,8.32
2022-10-22T03:13:36.131Z,8.40
2022-10-22T03:16:02.933Z,8.10
2022-10-22T03:18:29.681Z,8.38
2022-10-22T03:21:34.147Z,8.60
2022-10-22T03:26:29.658Z,8.20
2022-10-22T03:28:56.650Z,8.43
2022-10-22T03:31:23.414Z,8.10
2022-10-22T03:33:50.235Z,9.07
2022-10-22T03:36:17.155Z,7.80
2022-10-22T03:38:43.915Z,8.05
2022-10-22T03:41:10.928Z,8.35
2022-10-22T03:43:39.210Z,8.35
2022-10-22T03:46:05.999Z,8.18
2022-10-22T03:48:32.787Z,7.70
2022-10-22T03:50:59.533Z,8.15
2022-10-22T03:53:26.242Z,7.95
2022-10-22T03:55:53.003Z,8.23
2022-10-22T03:58:19.806Z,7.97
2022-10-22T04:00:46.592Z,7.60
2022-10-22T04:03:13.463Z,8.18
2022-10-22T04:05:40.268Z,8.85
2022-10-22T04:08:07.039Z,7.75
2022-10-22T04:10:33.791Z,8.05
2022-10-22T04:13:00.543Z,9.38
2022-10-22T04:15:29.013Z,8.40
2022-10-22T04:17:56.163Z,8.32
2022-10-22T04:20:23.039Z,8.27
2022-10-22T04:22:49.818Z,8.15
2022-10-22T04:25:16.650Z,8.27
2022-10-22T04:27:43.496Z,8.27
2022-10-22T04:30:10.830Z,8.77
2022-10-22T04:32:37.593Z,8.32
2022-10-22T04:35:04.703Z,9.38
2022-10-22T04:37:32.823Z,8.63
2022-10-22T04:39:59.588Z,8.98
2022-10-22T04:42:26.589Z,9.35
2022-10-22T04:44:53.302Z,9.85
2022-10-22T04:47:20.032Z,8.95
2022-10-22T07:06:32.371Z,6.65
2022-10-22T07:09:02.588Z,7.43
2022-10-22T07:11:37.340Z,6.88
2022-10-22T07:14:04.446Z,7.10
2022-10-22T07:16:32.468Z,7.22
2022-10-22T07:19:00.578Z,6.93
2022-10-22T07:21:27.759Z,7.50
2022-10-22T07:23:54.878Z,7.88
2022-10-22T07:26:21.627Z,7.28
2022-10-22T07:28:48.807Z,7.65
2022-10-22T07:31:18.003Z,7.47
2022-10-22T07:33:45.571Z,7.80
2022-10-22T07:36:17.689Z,7.22
2022-10-22T07:38:46.831Z,7.00
2022-10-22T07:41:15.203Z,7.40
2022-10-22T07:43:41.993Z,7.20
2022-10-22T07:46:09.045Z,7.30
2022-10-22T07:48:39.211Z,6.78
2022-10-22T07:51:06.765Z,7.10
2022-10-22T07:53:34.148Z,7.43
2022-10-22T07:56:01.225Z,8.05
2022-10-22T07:58:28.051Z,7.75
2022-10-22T08:01:00.965Z,8.18
2022-10-22T08:03:28.797Z,7.07
2022-10-22T08:05:55.749Z,7.40
2022-10-22T08:08:25.874Z,7.13
2022-10-22T08:10:56.590Z,7.35
2022-10-22T08:13:23.969Z,7.45
2022-10-22T08:15:52.463Z,7.95
2022-10-22T08:18:23.179Z,7.20
2022-10-22T08:20:49.896Z,7.45
2022-10-22T08:23:16.658Z,7.40
2022-10-22T08:25:43.423Z,6.88
2022-10-22T08:28:10.164Z,7.00
2022-10-22T08:30:38.632Z,7.05
2022-10-22T08:33:06.207Z,6.93
2022-10-22T08:35:33.181Z,7.05
2022-10-22T08:37:59.917Z,6.53
2022-10-22T08:40:37.353Z,7.57
2022-10-22T08:43:12.653Z,9.60
2022-10-22T08:46:02.672Z,7.57
2022-10-22T08:48:45.897Z,6.97
2022-10-22T08:51:16.667Z,7.18
2022-10-22T08:54:13.472Z,7.07
2022-10-22T08:56:45.102Z,6.60
2022-10-22T08:59:20.141Z,6.07
2022-10-22T09:01:51.390Z,6.07
2022-10-22T09:04:33.667Z,6.80
2022-10-22T09:07:00.870Z,7.55
2022-10-22T09:09:35.132Z,6.75
2022-10-22T09:12:04.579Z,6.25
2022-10-22T09:14:31.455Z,6.00
2022-10-22T09:17:38.500Z,6.88
2022-10-22T09:20:26.737Z,7.00
2022-10-22T09:23:19.358Z,6.63
2022-10-22T09:25:46.929Z,6.28
2022-10-22T09:28:14.150Z,6.40
2022-10-22T09:30:41.670Z,6.40
2022-10-22T09:33:14.504Z,7.07
2022-10-22T09:35:54.352Z,6.47
2022-10-22T09:38:26.533Z,7.57
2022-10-22T09:40:55.587Z,8.13
2022-10-22T09:43:22.586Z,7.30
2022-10-22T09:45:58.012Z,7.10
2022-10-22T09:48:35.290Z,7.18
2022-10-22T09:51:22.732Z,7.55
2022-10-22T09:54:01.891Z,8.15
2022-10-22T09:56:35.374Z,8.00
2022-10-22T09:59:02.293Z,8.25
2022-10-22T10:01:35.249Z,8.57
2022-10-22T10:04:09.903Z,8.52
2022-10-22T10:06:41.306Z,9.10
2022-10-22T10:09:20.984Z,8.50
2022-10-22T10:12:00.956Z,9.25
2022-10-22T10:14:57.114Z,8.45
2022-10-22T10:17:33.103Z,8.27
2022-10-22T10:20:15.176Z,8.02
2022-10-22T10:22:53.406Z,7.28
2022-10-22T10:25:46.390Z,7.82
2022-10-22T10:28:34.532Z,6.53
2022-10-22T10:31:07.856Z,7.03
2022-10-22T10:34:06.764Z,7.45
2022-10-22T10:37:03.522Z,8.18
2022-10-22T10:40:01.337Z,8.05
2022-10-22T10:42:41.286Z,7.28
2022-10-22T10:45:18.884Z,6.63
2022-10-22T10:47:45.549Z,6.30
2022-10-22T10:50:35.155Z,6.63
2022-10-22T10:53:47.791Z,6.65
2022-10-22T10:56:23.761Z,6.78
2022-10-22T10:58:50.429Z,6.75
2022-10-22T11:01:41.064Z,7.20
2022-10-22T11:04:32.197Z,7.22
2022-10-22T11:07:11.668Z,7.10
2022-10-22T11:10:09.245Z,7.38
2022-10-22T11:12:44.560Z,7.20
2022-10-22T11:15:33.336Z,7.25
2022-10-22T11:18:23.657Z,7.85
2022-10-22T11:20:56.243Z,7.30
2022-10-22T11:23:36.909Z,7.25
2022-10-22T11:26:07.993Z,7.30
2022-10-22T11:28:41.279Z,7.53
2022-10-22T11:31:16.785Z,7.60
2022-10-22T11:34:28.567Z,8.07
2022-10-22T11:36:55.336Z,7.70
2022-10-22T11:39:33.974Z,7.82
2022-10-22T11:42:04.366Z,8.57
2022-10-22T11:44:32.525Z,8.15
2022-10-22T11:47:15.574Z,7.53
2022-10-22T11:49:55.757Z,7.30
2022-10-22T11:52:33.046Z,7.93
2022-10-22T11:55:03.124Z,8.43
2022-10-22T11:57:38.465Z,8.73
2022-10-22T12:00:46.070Z,7.70
2022-10-22T12:03:24.870Z,7.10
2022-10-22T12:06:20.933Z,6.32
2022-10-22T12:08:50.916Z,5.85
2022-10-22T12:11:39.431Z,5.55
2022-10-22T12:14:29.840Z,4.93
2022-10-22T12:17:07.430Z,4.45
2022-10-22T12:19:39.911Z,3.55
2022-10-22T12:22:16.528Z,3.25
2022-10-22T12:24:55.113Z,1.98
2022-10-22T12:27:27.688Z,1.83
2022-10-22T12:32:38.391Z,1.50
2022-10-22T12:35:07.915Z,1.50
2022-10-22T12:37:38.625Z,1.50
2022-10-22T12:40:19.305Z,1.40
2022-10-22T12:42:54.736Z,1.30
2022-10-22T12:45:22.360Z,1.35
2022-10-22T12:47:52.291Z,1.90
2022-10-22T12:50:23.058Z,1.60
2022-10-22T12:52:49.909Z,1.50
2022-10-22T12:55:19.610Z,1.70
2022-10-22T12:57:49.758Z,1.50
2022-10-22T13:00:25.525Z,1.90
2022-10-22T13:02:53.432Z,1.85
2022-10-22T13:05:20.104Z,2.10
2022-10-22T13:07:52.905Z,2.50
2022-10-22T13:10:30.806Z,2.50
2022-10-22T13:12:58.986Z,3.08
2022-10-22T13:15:31.422Z,2.60
2022-10-22T13:18:16.927Z,2.65
2022-10-22T13:21:02.507Z,2.53
2022-10-22T13:23:31.563Z,2.90
2022-10-22T13:26:12.364Z,2.78
2022-10-22T13:28:39.691Z,2.65
2022-10-22T13:31:17.004Z,2.75
2022-10-22T13:33:46.972Z,2.58
2022-10-22T13:36:16.096Z,2.75
2022-10-22T13:38:44.051Z,2.95
2022-10-22T13:41:28.323Z,3.08
2022-10-22T13:43:55.718Z,2.60
2022-10-22T13:46:23.721Z,2.78
2022-10-22T13:48:53.530Z,3.13
2022-10-22T13:51:23.484Z,3.53
2022-10-22T13:53:52.531Z,2.95
2022-10-22T13:56:20.670Z,2.95
2022-10-22T13:58:49.608Z,3.03
2022-10-22T14:01:23.325Z,3.08
2022-10-22T14:03:52.220Z,2.72
2022-10-22T14:06:21.051Z,2.92
2022-10-22T14:08:50.639Z,2.67
2022-10-22T14:11:17.884Z,2.78
2022-10-22T14:13:44.689Z,2.78
2022-10-22T14:16:20.195Z,2.58
2022-10-22T14:18:48.624Z,2.70
2022-10-22T14:21:16.745Z,2.55
2022-10-22T14:23:45.772Z,2.60
2022-10-22T14:26:29.248Z,2.92
2022-10-22T14:29:12.077Z,2.40
2022-10-22T14:31:44.411Z,2.38
2022-10-22T14:34:14.159Z,2.40
2022-10-22T14:36:43.537Z,2.63
2022-10-22T14:39:10.844Z,2.35
2022-10-22T14:41:37.823Z,2.30
2022-10-22T14:44:04.766Z,2.50
2022-10-22T14:46:31.519Z,2.40
2022-10-22T14:48:58.260Z,2.45
2022-10-22T14:51:25.060Z,2.38
2022-10-22T14:53:51.810Z,2.17
2022-10-22T14:56:22.456Z,2.15
2022-10-22T14:58:49.441Z,2.17
2022-10-22T15:01:16.596Z,2.20
2022-10-22T15:03:43.411Z,1.98
2022-10-22T15:06:10.195Z,2.20
2022-10-22T15:08:37.006Z,2.45
2022-10-22T15:11:07.505Z,2.55
2022-10-22T15:13:35.137Z,2.47
2022-10-22T15:16:05.347Z,2.35
2022-10-22T15:18:32.076Z,2.78
2022-10-22T15:21:08.855Z,3.17
2022-10-22T15:23:39.129Z,2.95
2022-10-22T15:26:14.736Z,3.15
2022-10-22T15:28:41.973Z,3.13
2022-10-22T15:31:14.583Z,2.70
2022-10-22T15:36:11.568Z,2.92
2022-10-22T15:38:38.403Z,3.30
2022-10-22T15:41:06.985Z,3.42
2022-10-22T15:43:34.970Z,3.28
2022-10-22T15:46:21.923Z,3.10
2022-10-22T15:48:48.730Z,3.05
2022-10-22T15:51:17.530Z,4.72
2022-10-22T15:53:50.411Z,5.60
2022-10-22T15:56:17.185Z,3.20
2022-10-22T15:58:43.933Z,3.10
2022-10-22T16:01:14.239Z,3.05
2022-10-22T16:03:41.706Z,2.60
2022-10-22T16:06:09.534Z,2.75
2022-10-22T16:08:36.606Z,3.10
2022-10-22T16:11:03.498Z,2.80
2022-10-22T16:13:30.949Z,2.80
2022-10-22T16:15:57.677Z,2.50
2022-10-22T16:18:24.492Z,2.70
2022-10-22T16:20:51.257Z,2.25
2022-10-22T16:23:18.671Z,2.55
2022-10-22T16:25:46.425Z,2.35
2022-10-22T16:28:13.668Z,2.72
2022-10-22T16:30:41.603Z,2.70
2022-10-22T16:33:09.902Z,2.50
2022-10-22T16:35:41.524Z,2.45
2022-10-22T16:38:10.607Z,2.20
2022-10-22T16:40:37.396Z,2.60
2022-10-22T16:43:04.357Z,2.58
2022-10-22T16:45:31.068Z,2.80
2022-10-22T16:47:57.857Z,3.55
2022-10-22T16:50:24.595Z,3.67
2022-10-22T16:52:51.402Z,3.50
2022-10-22T16:55:18.423Z,3.38
2022-10-22T16:57:50.897Z,2.90
2022-10-22T17:00:17.911Z,3.10
2022-10-22T17:02:44.731Z,3.10
2022-10-22T17:05:11.493Z,3.00
2022-10-22T17:07:38.197Z,3.13
2022-10-22T17:10:05.743Z,3.30
2022-10-22T17:12:35.303Z,3.10
2022-10-22T17:15:04.279Z,2.92
2022-10-22T17:17:31.447Z,2.85
2022-10-22T17:19:58.718Z,3.08
2022-10-22T17:22:25.837Z,2.50
2022-10-22T17:25:06.646Z,2.63
2022-10-22T17:27:33.379Z,2.70
2022-10-22T17:30:00.056Z,2.90
2022-10-22T17:32:26.771Z,3.08
2022-10-22T17:34:54.514Z,2.83
2022-10-22T17:37:23.814Z,3.00
2022-10-22T17:39:50.522Z,3.00
2022-10-22T17:42:17.338Z,3.97
2022-10-22T17:44:44.035Z,3.33
2022-10-22T17:47:10.830Z,3.60
2022-10-22T17:49:38.690Z,3.95
2022-10-22T17:52:05.390Z,3.45
2022-10-22T17:54:33.397Z,3.83
2022-10-22T17:57:00.148Z,3.13
2022-10-22T17:59:27.892Z,3.80
2022-10-22T18:01:58.143Z,4.70
2022-10-22T18:04:27.051Z,4.07
2022-10-22T18:06:53.757Z,4.72
2022-10-22T18:09:20.492Z,5.05
2022-10-22T18:11:49.200Z,6.70
2022-10-22T18:14:20.162Z,5.18
2022-10-22T18:16:47.580Z,6.00
2022-10-22T18:19:16.808Z,5.57
2022-10-22T18:21:43.603Z,7.20
2022-10-22T18:24:11.299Z,6.82
2022-10-22T18:26:38.298Z,5.85
2022-10-22T18:29:05.116Z,5.80
2022-10-22T18:31:32.702Z,4.22
2022-10-22T18:33:59.489Z,4.32
2022-10-22T18:36:27.879Z,3.67
2022-10-22T18:38:59.785Z,3.35
2022-10-22T18:41:27.431Z,3.60
2022-10-22T18:43:59.989Z,3.92
2022-10-22T18:46:28.579Z,4.00
2022-10-22T18:48:57.082Z,3.58
2022-10-22T18:51:25.143Z,3.50
2022-10-22T18:54:11.359Z,4.30
2022-10-22T18:56:41.864Z,4.80
2022-10-22T18:59:16.734Z,4.55
2022-10-22T19:01:43.537Z,4.07
2022-10-22T19:04:10.280Z,4.10
2022-10-22T19:06:37.604Z,4.53
2022-10-22T19:09:05.199Z,4.55
2022-10-22T19:11:32.605Z,4.22
2022-10-22T19:13:59.374Z,4.50
2022-10-22T19:16:27.275Z,4.75
2022-10-22T19:19:08.219Z,4.35
2022-10-22T19:21:35.343Z,4.57
2022-10-22T19:24:02.420Z,4.50
2022-10-22T19:26:30.416Z,4.25
2022-10-22T19:28:58.342Z,4.72
2022-10-22T19:31:25.914Z,4.32
2022-10-22T19:33:55.267Z,4.60
2022-10-22T19:36:27.936Z,5.32
2022-10-22T19:38:55.789Z,5.13
2022-10-22T19:41:24.564Z,5.57
2022-10-22T19:43:53.086Z,5.72
2022-10-22T19:46:21.512Z,5.90
2022-10-22T19:48:49.740Z,5.90
2022-10-22T19:51:22.686Z,5.70
2022-10-22T19:53:51.245Z,5.63
2022-10-22T19:56:19.877Z,5.25
2022-10-22T19:58:47.126Z,5.70
2022-10-22T20:01:16.138Z,6.07
2022-10-22T20:03:43.140Z,6.00
2022-10-22T20:06:12.305Z,6.78
2022-10-22T20:08:39.784Z,5.72
2022-10-22T20:11:10.541Z,7.30
2022-10-22T20:16:09.716Z,7.20
2022-10-22T20:18:36.712Z,6.53
2022-10-22T20:21:07.882Z,6.13
2022-10-22T20:23:35.522Z,6.05
2022-10-22T20:26:05.790Z,6.95
2022-10-22T20:28:33.267Z,6.03
2022-10-22T20:31:00.048Z,4.68
2022-10-22T20:33:26.850Z,4.50
2022-10-22T20:36:05.454Z,3.30
2022-10-22T20:38:32.282Z,4.43
2022-10-22T20:41:13.817Z,4.28
2022-10-22T20:43:42.930Z,4.25
2022-10-22T20:46:17.739Z,3.83
2022-10-22T20:48:44.643Z,3.83
2022-10-22T20:51:12.296Z,3.72
2022-10-22T20:53:39.052Z,3.92
2022-10-22T20:56:06.669Z,3.63
2022-10-22T20:58:33.488Z,3.20
2022-10-22T21:01:05.510Z,3.50
2022-10-22T21:06:04.643Z,3.80
2022-10-22T21:08:31.465Z,3.42
2022-10-22T21:10:58.193Z,3.80
2022-10-22T21:13:25.046Z,4.28
2022-10-22T21:15:51.731Z,4.57
2022-10-22T21:18:18.458Z,4.13
2022-10-22T21:20:45.201Z,4.32
2022-10-22T21:23:12.281Z,4.28
2022-10-22T21:25:41.992Z,4.47
2022-10-22T21:28:12.944Z,3.55
2022-10-22T21:30:45.592Z,4.35
2022-10-22T21:33:12.476Z,4.20
2022-10-22T21:35:39.260Z,4.97
2022-10-22T21:38:07.834Z,5.00
2022-10-22T21:40:37.753Z,5.35
2022-10-22T21:43:04.505Z,4.93
2022-10-22T21:45:31.210Z,5.07
2022-10-22T21:47:58.031Z,5.75
2022-10-22T21:50:24.769Z,5.63
2022-10-22T21:52:51.469Z,5.35
2022-10-22T21:55:18.243Z,5.28
2022-10-22T21:57:45.108Z,5.72
2022-10-22T22:00:13.315Z,5.72
2022-10-22T22:02:40.198Z,7.60
2022-10-22T22:05:07.587Z,6.70
2022-10-22T22:07:34.833Z,6.82
2022-10-22T22:10:01.564Z,5.93
2022-10-22T22:12:28.306Z,6.43
2022-10-22T22:14:55.084Z,6.45
2022-10-22T22:17:21.830Z,6.03
2022-10-22T22:19:48.565Z,5.97
2022-10-22T22:22:15.300Z,5.78
2022-10-22T22:24:42.040Z,4.97
2022-10-22T22:27:08.806Z,4.82
2022-10-22T22:29:35.612Z,5.40
2022-10-22T22:32:02.351Z,4.93
2022-10-22T22:34:29.134Z,5.03
2022-10-22T22:36:55.901Z,4.80
2022-10-22T22:39:23.454Z,4.47
2022-10-22T22:41:50.176Z,4.50
2022-10-22T22:44:17.163Z,4.70
2022-10-22T22:46:44.306Z,4.72
2022-10-22T22:49:12.877Z,4.68
2022-10-22T22:51:39.794Z,4.20
2022-10-22T22:54:06.533Z,4.10
2022-10-22T22:56:37.363Z,4.18
2022-10-22T22:59:04.438Z,4.30
2022-10-22T23:01:34.413Z,4.10
2022-10-22T23:04:05.648Z,4.32
2022-10-22T23:06:36.087Z,4.13
2022-10-22T23:09:04.078Z,4.43
2022-10-22T23:11:30.953Z,4.45
2022-10-22T23:14:04.888Z,4.70
2022-10-22T23:16:34.731Z,4.95
2022-10-22T23:19:01.767Z,5.05
2022-10-22T23:21:31.394Z,4.32
2022-10-22T23:24:01.340Z,4.70
2022-10-22T23:26:33.813Z,4.55
2022-10-22T23:29:06.026Z,4.40
2022-10-22T23:31:33.456Z,3.72
2022-10-22T23:34:00.638Z,4.50
2022-10-22T23:36:27.671Z,4.63
2022-10-22T23:38:55.602Z,4.43
2022-10-22T23:41:22.480Z,4.82
2022-10-22T23:43:50.305Z,4.30
2022-10-22T23:46:17.307Z,4.07
2022-10-22T23:48:44.139Z,4.07
2022-10-22T23:51:13.676Z,4.13
2022-10-22T23:53:42.170Z,3.75
2022-10-22T23:56:13.131Z,4.10
2022-10-22T23:58:40.619Z,4.38
